Terminal Aerodrome Forecast
Issued by NWS

Home | Current Version | Previous Version | Text Only | Print | Product List | Glossary Off
Versions: 1 2 3 4 5 6 7 8 9 10 11 12 13 14 15 16 17 18 19 20 21 22 23 24 25 26 27 28 29

400
FTUS43 KABR 252137 AAB
TAFATY
TAF AMD
KATY 252137Z 2522/2618 17020G25KT P6SM VCSH BKN050
     FM260200 20008KT P6SM SCT250
     FM261000 28010KT P6SM SKC=

USA.gov is the U.S. government's official web portal to all federal, state and local government web resources and services.